KONZ

Details ICAO KONZ
Name [X] Grosse Ile Muni
Region United States
Timezone America/Detroit (UTC-4.0)
Plans Departing 10
Arriving 3
Stats Elevation 591 ft / 180 m (AMSL)
Location 42.099078° -83.161640°
Runways 2
Magnetic Variation 7.429° W
Sunrise 2018-05-24 10:05:32 UTC / 2018-05-24 06:05:32 Local
Sunset 2018-05-25 00:56:21 UTC / 2018-05-24 20:56:21 Local
Advertisement - Login to hide

Runways

ID Width Length Bearing (true) Bearing (mag) Surface Threshold Offset Overrun Length
04 98 ft / 30 m 4,848 ft / 1,478 m 30.24° 37.67° Concrete 446 ft / 136 m 0 ft / 0 m
17 75 ft / 23 m 4,430 ft / 1,350 m 166.84° 174.27° Concrete 676 ft / 206 m 0 ft / 0 m
22 98 ft / 30 m 4,848 ft / 1,478 m 210.25° 217.68° Concrete 427 ft / 130 m 0 ft / 0 m
35 75 ft / 23 m 4,430 ft / 1,350 m 346.84° 354.27° Concrete 0 ft / 0 m 0 ft / 0 m

Map

Weather


0- 5 10 15 20 25 30 35+ Temperature / ° C

Clouds and Precipitation
Forecast for 2018-05-24 06:00 UTC. Updated 3 hours ago

Ground ~20,000 ft ~40,000 ft Winds

METAR

KONZ 240815Z AUTO 30003KT 10SM CLR 13/12 A3019 RMK AO2 T01300116

TAF

Not found
Warning: Do not use this data for real-world aviation or navigation. No guarantee of current accuracy is given.